createdAt,value
2023-06-25T00:01:21.336Z,102177.06
2023-06-25T00:03:49.728Z,102186.22
2023-06-25T00:06:17.738Z,102174.78
2023-06-25T00:08:44.781Z,102182.75
2023-06-25T00:11:12.614Z,102176.47
2023-06-25T00:13:41.033Z,102177.31
2023-06-25T00:16:11.701Z,102176.16
2023-06-25T00:18:38.606Z,102173.03
2023-06-25T00:21:06.322Z,102169.13
2023-06-25T00:23:33.341Z,102170.81
2023-06-25T00:26:00.238Z,102160.59
2023-06-25T00:28:29.316Z,102165.78
2023-06-25T00:30:56.688Z,102164.59
2023-06-25T00:33:24.979Z,102163.09
2023-06-25T00:35:57.687Z,102165.50
2023-06-25T00:38:26.005Z,102153.75
2023-06-25T00:40:56.425Z,102158.53
2023-06-25T00:43:44.778Z,102158.19
2023-06-25T00:46:17.531Z,102155.03
2023-06-25T00:51:30.454Z,102151.66
2023-06-25T00:54:00.989Z,102141.88
2023-06-25T00:56:30.571Z,102146.66
2023-06-25T00:59:02.233Z,102149.47
2023-06-25T01:01:48.947Z,102138.84
2023-06-25T01:04:26.091Z,102139.75
2023-06-25T01:06:59.010Z,102133.13
2023-06-25T01:09:29.025Z,102130.34
2023-06-25T01:14:44.893Z,102126.94
2023-06-25T01:17:17.669Z,102130.88
2023-06-25T01:19:46.822Z,102118.69
2023-06-25T01:22:23.235Z,102118.31
2023-06-25T01:27:41.390Z,102120.00
2023-06-25T01:30:09.315Z,102116.50
2023-06-25T01:32:36.312Z,102109.41
2023-06-25T01:35:03.895Z,102107.88
2023-06-25T01:37:32.308Z,102110.28
2023-06-25T01:39:59.320Z,102103.22
2023-06-25T01:42:26.731Z,102095.75
2023-06-25T01:44:53.729Z,102096.94
2023-06-25T01:47:23.289Z,102095.03
2023-06-25T01:49:52.306Z,102088.75
2023-06-25T01:52:19.456Z,102089.94
2023-06-25T01:54:47.396Z,102088.41
2023-06-25T01:57:14.711Z,102081.72
2023-06-25T01:59:41.692Z,102077.81
2023-06-25T02:02:09.932Z,102077.84
2023-06-25T02:04:36.820Z,102077.19
2023-06-25T02:07:05.010Z,102079.59
2023-06-25T02:09:32.486Z,102070.19
2023-06-25T02:12:00.330Z,102072.16
2023-06-25T02:14:29.595Z,102068.25
2023-06-25T02:16:56.674Z,102060.00
2023-06-25T02:19:23.476Z,102058.91
2023-06-25T02:21:51.472Z,102054.97
2023-06-25T02:24:21.409Z,102059.34
2023-06-25T02:26:52.642Z,102054.22
2023-06-25T02:29:22.631Z,102054.22
2023-06-25T02:31:54.791Z,102056.22
2023-06-25T02:34:21.921Z,102055.44
2023-06-25T02:36:52.761Z,102052.31
2023-06-25T02:39:19.941Z,102050.41
2023-06-25T02:41:47.045Z,102047.63
2023-06-25T02:44:14.619Z,102051.16
2023-06-25T02:46:42.504Z,102039.00
2023-06-25T02:49:09.375Z,102043.34
2023-06-25T02:51:36.617Z,102039.06
2023-06-25T02:54:03.782Z,102043.44
2023-06-25T02:56:30.669Z,102049.78
2023-06-25T02:58:57.680Z,102041.13
2023-06-25T03:01:24.746Z,102037.59
2023-06-25T03:03:52.058Z,102035.22
2023-06-25T03:06:20.207Z,102037.66
2023-06-25T03:08:49.115Z,102032.97
2023-06-25T03:11:20.715Z,102037.31
2023-06-25T03:13:49.176Z,102040.88
2023-06-25T03:16:16.140Z,102031.81
2023-06-25T03:18:42.916Z,102040.09
2023-06-25T03:21:09.877Z,102034.63
2023-06-25T03:23:36.774Z,102031.06
2023-06-25T03:26:03.802Z,102033.88
2023-06-25T03:28:30.618Z,102029.16
2023-06-25T03:30:57.328Z,102028.38
2023-06-25T03:33:24.057Z,102026.06
2023-06-25T03:35:50.935Z,102022.50
2023-06-25T03:38:18.955Z,102017.34
2023-06-25T03:40:45.624Z,102015.81
2023-06-25T03:43:12.415Z,102015.81
2023-06-25T03:45:42.629Z,102011.91
2023-06-25T03:48:10.991Z,102010.69
2023-06-25T03:50:40.415Z,102016.97
2023-06-25T03:53:07.493Z,102005.94
2023-06-25T03:55:34.455Z,102007.53
2023-06-25T03:58:01.905Z,102007.09
2023-06-25T04:00:30.830Z,102010.22
2023-06-25T04:02:57.599Z,102011.81
2023-06-25T04:05:24.559Z,102010.59
2023-06-25T04:07:51.330Z,102012.97
2023-06-25T04:10:20.354Z,102005.06
2023-06-25T04:12:48.558Z,102014.50
2023-06-25T04:15:15.456Z,102014.56
2023-06-25T04:17:42.404Z,102016.94
2023-06-25T04:20:09.534Z,102011.75
2023-06-25T04:22:36.385Z,102009.81
2023-06-25T04:25:06.046Z,102008.59
2023-06-25T04:27:33.013Z,102012.94
2023-06-25T04:30:00.013Z,102010.94
2023-06-25T04:32:30.112Z,102013.31
2023-06-25T04:34:58.966Z,102008.94
2023-06-25T04:37:26.122Z,101999.06
2023-06-25T04:39:55.359Z,102003.34
2023-06-25T04:42:23.322Z,102002.94
2023-06-25T04:44:54.086Z,102004.09
2023-06-25T04:47:21.055Z,102002.06
2023-06-25T04:49:48.392Z,102006.75
2023-06-25T04:52:19.887Z,101998.06
2023-06-25T04:54:48.039Z,102006.72
2023-06-25T04:57:20.228Z,102005.47
2023-06-25T04:59:47.578Z,102002.25
2023-06-25T05:02:15.736Z,102004.59
2023-06-25T05:04:47.029Z,101998.66
2023-06-25T05:07:18.470Z,101999.00
2023-06-25T05:09:45.308Z,102008.81
2023-06-25T05:14:54.425Z,102012.63
2023-06-25T05:17:21.592Z,102009.41
2023-06-25T05:19:48.682Z,102004.19
2023-06-25T05:22:17.572Z,102005.69
2023-06-25T05:24:45.657Z,102011.13
2023-06-25T05:27:12.480Z,102011.38
2023-06-25T05:29:39.200Z,102006.13
2023-06-25T05:32:07.461Z,102008.00
2023-06-25T05:34:36.390Z,102009.41
2023-06-25T05:37:37.324Z,102010.84
2023-06-25T05:43:12.101Z,102008.75
2023-06-25T05:45:39.612Z,102000.97
2023-06-25T05:50:55.555Z,101988.13
2023-06-25T06:02:58.417Z,101994.06
2023-06-25T06:16:08.151Z,101991.16
2023-06-25T06:18:34.927Z,101987.22
2023-06-25T06:21:01.624Z,101993.63
2023-06-25T06:23:28.394Z,101989.38
2023-06-25T06:25:55.156Z,101993.31
2023-06-25T06:28:21.835Z,101984.69
2023-06-25T07:02:09.924Z,101973.06
2023-06-25T07:05:41.110Z,101977.63
2023-06-25T07:12:41.007Z,101971.41
2023-06-25T07:15:39.018Z,101976.44
2023-06-25T07:18:49.881Z,101977.88
2023-06-25T07:21:46.263Z,101973.00
2023-06-25T07:26:25.634Z,101971.22
2023-06-25T07:27:31.993Z,101975.03
2023-06-25T07:29:56.982Z,101960.22
2023-06-25T07:32:47.922Z,101955.47
2023-06-25T07:35:17.160Z,101962.56
2023-06-25T07:37:55.645Z,101956.91
2023-06-25T07:40:45.309Z,101959.47
2023-06-25T07:49:16.349Z,101951.13
2023-06-25T07:51:11.172Z,101957.09
2023-06-25T07:52:10.700Z,101949.44
2023-06-25T07:55:05.264Z,101951.31
2023-06-25T07:57:47.864Z,101956.28
2023-06-25T08:00:44.881Z,101948.94
2023-06-25T08:07:04.659Z,101947.81
2023-06-25T08:09:59.628Z,101946.03
2023-06-25T08:15:25.210Z,101939.91
2023-06-25T08:19:18.181Z,101935.78
2023-06-25T08:24:28.770Z,101926.09
2023-06-25T08:26:59.852Z,101928.16
2023-06-25T08:29:54.275Z,101930.69
2023-06-25T08:35:37.535Z,101926.28
2023-06-25T08:41:15.031Z,101915.16
2023-06-25T08:48:10.209Z,101909.59
2023-06-25T08:51:12.472Z,101912.91
2023-06-25T09:01:12.983Z,101895.94
2023-06-25T09:05:19.984Z,101895.47
2023-06-25T09:10:33.582Z,101890.53
2023-06-25T09:18:27.217Z,101900.03
2023-06-25T09:20:55.920Z,101892.00
2023-06-25T09:23:28.145Z,101892.16
2023-06-25T09:26:14.587Z,101889.69
2023-06-25T09:32:35.337Z,101883.84
2023-06-25T09:46:24.127Z,101872.81
2023-06-25T09:58:05.200Z,101861.69
2023-06-25T10:00:33.601Z,101859.19
2023-06-25T10:03:00.615Z,101871.59
2023-06-25T10:10:59.493Z,101854.41
2023-06-25T10:16:42.611Z,101854.25
2023-06-25T10:34:51.437Z,101828.34
2023-06-25T10:37:20.041Z,101841.97
2023-06-25T10:55:18.531Z,101810.06
2023-06-25T20:45:07.289Z,101387.09
